createdAt,value
2018-11-28T00:00:25.611Z,941.08
2018-11-28T00:01:26.114Z,941.12
2018-11-28T00:02:26.627Z,941.07
2018-11-28T00:03:27.189Z,941.08
2018-11-28T00:04:27.975Z,941.11
2018-11-28T00:05:28.472Z,941.06
2018-11-28T00:06:29.252Z,941.05
2018-11-28T00:07:30.309Z,941.04
2018-11-28T00:08:31.120Z,941.04
2018-11-28T00:09:31.625Z,941.03
2018-11-28T00:10:31.964Z,941.1
2018-11-28T00:11:32.467Z,941.09
2018-11-28T00:12:33.248Z,941.14
2018-11-28T00:13:34.249Z,941.13
2018-11-28T00:14:35.469Z,941.12
2018-11-28T00:15:35.974Z,941.09
2018-11-28T00:16:37.029Z,941.11
2018-11-28T00:17:37.307Z,941.1
2018-11-28T00:18:38.457Z,941.12
2018-11-28T00:19:39.520Z,941.12
2018-11-28T00:20:40.029Z,941.12
2018-11-28T00:21:40.803Z,941.07
2018-11-28T00:22:41.310Z,941.11
2018-11-28T00:23:42.418Z,941.11
2018-11-28T00:24:43.194Z,941.1
2018-11-28T00:25:44.255Z,941.09
2018-11-28T00:26:45.479Z,941.12
2018-11-28T00:27:46.089Z,941.12
2018-11-28T00:28:47.148Z,941.1
2018-11-28T00:29:47.932Z,941.06
2018-11-28T00:30:49.156Z,941.08
2018-11-28T00:31:49.666Z,941.03
2018-11-28T00:32:51.169Z,941.06
2018-11-28T00:33:52.001Z,941.05
2018-11-28T00:34:53.227Z,941.12
2018-11-28T00:35:54.461Z,941.11
2018-11-28T00:36:54.956Z,941.08
2018-11-28T00:37:56.183Z,941.09
2018-11-28T00:38:56.685Z,941.08
2018-11-28T00:39:58.188Z,941.12
2018-11-28T00:40:58.742Z,941.1
2018-11-28T00:41:59.245Z,941.14
2018-11-28T00:43:00.022Z,941.13
2018-11-28T00:44:01.126Z,941.13
2018-11-28T00:45:01.917Z,941.09
2018-11-28T00:46:02.689Z,941.1
2018-11-28T00:47:03.752Z,941.14
2018-11-28T00:48:04.580Z,941.12
2018-11-28T00:49:05.079Z,941.12
2018-11-28T00:50:05.909Z,941.11
2018-11-28T00:51:06.416Z,941.14
2018-11-28T00:52:06.919Z,941.15
2018-11-28T00:53:07.420Z,941.22
2018-11-28T00:54:07.694Z,941.21
2018-11-28T00:55:08.519Z,941.26
2018-11-28T00:56:09.019Z,941.25
2018-11-28T00:57:10.245Z,941.26
2018-11-28T00:58:11.023Z,941.2
2018-11-28T00:59:11.806Z,941.17
2018-11-28T01:00:12.312Z,941.2
2018-11-28T01:01:12.858Z,941.19
2018-11-28T01:02:13.636Z,941.17
2018-11-28T01:03:14.142Z,941.2
2018-11-28T01:04:15.139Z,941.21
2018-11-28T01:05:16.365Z,941.25
2018-11-28T01:06:17.595Z,941.26
2018-11-28T01:07:18.655Z,941.29
2018-11-28T01:08:19.155Z,941.27
2018-11-28T01:09:20.383Z,941.26
2018-11-28T01:10:21.606Z,941.33
2018-11-28T01:11:23.109Z,941.29
2018-11-28T01:12:23.611Z,941.33
2018-11-28T01:13:24.117Z,941.33
2018-11-28T01:14:25.121Z,941.34
2018-11-28T01:15:26.347Z,941.33
2018-11-28T01:16:27.125Z,941.31
2018-11-28T01:17:27.630Z,941.38
2018-11-28T01:18:28.140Z,941.32
2018-11-28T01:19:28.641Z,941.38
2018-11-28T01:20:29.419Z,941.36
2018-11-28T01:21:30.476Z,941.36
2018-11-28T01:22:31.257Z,941.37
2018-11-28T01:23:32.482Z,941.38
2018-11-28T01:24:33.871Z,941.36
2018-11-28T01:25:34.381Z,941.34
2018-11-28T01:26:35.159Z,941.33
2018-11-28T01:27:47.603Z,941.34
2018-11-28T01:28:48.576Z,941.34
2018-11-28T01:29:49.077Z,941.39
2018-11-28T01:30:50.136Z,941.37
2018-11-28T01:31:50.915Z,941.38
2018-11-28T01:32:51.694Z,941.42
2018-11-28T01:33:51.986Z,941.37
2018-11-28T01:34:53.210Z,941.41
2018-11-28T01:35:53.989Z,941.41
2018-11-28T01:36:55.212Z,941.38
2018-11-28T01:37:55.719Z,941.42
2018-11-28T01:38:56.994Z,941.44
2018-11-28T01:39:58.049Z,941.42
2018-11-28T01:40:58.830Z,941.47
2018-11-28T01:41:59.608Z,941.41
2018-11-28T01:43:00.113Z,941.44
2018-11-28T01:44:00.894Z,941.43
2018-11-28T01:45:01.952Z,941.45
2018-11-28T01:46:03.007Z,941.41
2018-11-28T01:47:03.786Z,941.45
2018-11-28T01:48:04.290Z,941.44
2018-11-28T01:49:05.567Z,941.49
2018-11-28T01:50:06.789Z,941.46
2018-11-28T01:51:07.586Z,941.48
2018-11-28T01:52:08.818Z,941.42
2018-11-28T01:53:09.595Z,941.49
2018-11-28T01:54:11.097Z,941.43
2018-11-28T01:55:12.603Z,941.45
2018-11-28T01:56:13.420Z,941.44
2018-11-28T01:57:14.472Z,941.45
2018-11-28T01:58:15.253Z,941.41
2018-11-28T01:59:15.806Z,941.44
2018-11-28T02:00:16.869Z,941.42
2018-11-28T02:01:17.929Z,941.41
2018-11-28T02:02:18.992Z,941.41
2018-11-28T02:03:19.331Z,941.47
2018-11-28T02:04:20.136Z,941.42
2018-11-28T02:05:20.655Z,941.36
2018-11-28T02:06:21.434Z,941.36
2018-11-28T02:07:22.210Z,941.38
2018-11-28T02:08:22.991Z,941.38
2018-11-28T02:09:23.821Z,941.4
2018-11-28T02:10:24.599Z,941.39
2018-11-28T02:11:25.384Z,941.37
2018-11-28T02:12:26.439Z,941.37
2018-11-28T02:13:27.539Z,941.34
2018-11-28T02:14:28.318Z,941.36
2018-11-28T02:15:28.818Z,941.36
2018-11-28T02:16:29.317Z,941.34
2018-11-28T02:17:30.535Z,941.39
2018-11-28T02:18:31.592Z,941.4
2018-11-28T02:19:31.881Z,941.39
2018-11-28T02:20:32.662Z,941.44
2018-11-28T02:21:33.441Z,941.42
2018-11-28T02:22:34.501Z,941.41
2018-11-28T02:23:35.559Z,941.43
2018-11-28T02:24:36.061Z,941.46
2018-11-28T02:25:36.565Z,941.44
2018-11-28T02:26:37.626Z,941.45
2018-11-28T02:27:38.405Z,941.46
2018-11-28T02:28:39.517Z,941.46
2018-11-28T02:29:40.069Z,941.47
2018-11-28T02:30:40.574Z,941.43
2018-11-28T02:31:41.810Z,941.47
2018-11-28T02:32:42.152Z,941.5
2018-11-28T02:33:43.228Z,941.51
2018-11-28T02:34:44.008Z,941.53
2018-11-28T02:35:44.341Z,941.52
2018-11-28T02:36:45.121Z,941.53
2018-11-28T02:37:46.177Z,941.55
2018-11-28T02:38:47.258Z,941.55
2018-11-28T02:39:47.532Z,941.54
2018-11-28T02:40:47.877Z,941.55
2018-11-28T02:41:48.221Z,941.56
2018-11-28T02:42:49.285Z,941.57
2018-11-28T02:43:50.111Z,941.55
2018-11-28T02:44:51.169Z,941.55
2018-11-28T02:45:51.672Z,941.56
2018-11-28T02:46:52.177Z,941.55
2018-11-28T02:47:52.991Z,941.59
2018-11-28T02:48:53.555Z,941.59
2018-11-28T02:49:54.525Z,941.56
2018-11-28T02:50:55.325Z,941.56
2018-11-28T02:51:55.937Z,941.55
2018-11-28T02:52:56.732Z,941.61
2018-11-28T02:53:57.789Z,941.64
2018-11-28T02:54:58.572Z,941.63
2018-11-28T02:55:59.075Z,941.63
2018-11-28T02:57:00.426Z,941.61
2018-11-28T02:58:01.651Z,941.67
2018-11-28T02:59:02.271Z,941.68
2018-11-28T03:00:03.112Z,941.62
2018-11-28T03:01:04.181Z,941.69
2018-11-28T03:02:04.526Z,941.63
2018-11-28T03:03:05.301Z,941.65
2018-11-28T03:04:05.636Z,941.65
2018-11-28T03:05:06.147Z,941.62
2018-11-28T03:06:06.649Z,941.57
2018-11-28T03:07:07.166Z,941.58
2018-11-28T03:08:07.960Z,941.61
2018-11-28T03:09:09.015Z,941.54
2018-11-28T03:10:09.457Z,941.59
2018-11-28T03:11:10.800Z,941.6
2018-11-28T03:12:11.589Z,941.61
2018-11-28T03:13:12.927Z,941.62
2018-11-28T03:14:13.977Z,941.62
2018-11-28T03:15:15.035Z,941.59
2018-11-28T03:16:16.110Z,941.58
2018-11-28T03:17:16.888Z,941.61
2018-11-28T03:18:17.244Z,941.61
2018-11-28T03:19:18.311Z,941.59
2018-11-28T03:20:18.729Z,941.62
2018-11-28T03:21:19.350Z,941.64
2018-11-28T03:22:20.156Z,941.66
2018-11-28T03:23:21.217Z,941.65
2018-11-28T03:24:21.994Z,941.62
2018-11-28T03:25:22.513Z,941.61
2018-11-28T03:26:23.578Z,941.62
2018-11-28T03:27:24.360Z,941.66
2018-11-28T03:28:25.865Z,941.58
2018-11-28T03:29:27.091Z,941.67
2018-11-28T03:30:27.376Z,941.68
2018-11-28T03:31:27.796Z,941.64
2018-11-28T03:32:29.245Z,941.65
2018-11-28T03:33:30.289Z,941.68
2018-11-28T03:34:30.754Z,941.65
2018-11-28T03:35:31.109Z,941.65
2018-11-28T03:36:32.443Z,941.6
2018-11-28T03:37:33.790Z,941.6
2018-11-28T03:38:34.681Z,941.62
2018-11-28T03:39:35.738Z,941.61
2018-11-28T03:40:36.902Z,941.65
2018-11-28T03:41:37.750Z,941.68
2018-11-28T03:42:38.361Z,941.69
2018-11-28T03:43:39.438Z,941.7
2018-11-28T03:44:40.501Z,941.67
2018-11-28T03:45:41.850Z,941.7
2018-11-28T03:46:43.230Z,941.69
2018-11-28T03:47:44.451Z,941.68
2018-11-28T03:48:45.232Z,941.75
2018-11-28T03:49:46.010Z,941.69
2018-11-28T03:50:47.123Z,941.71
2018-11-28T03:51:47.741Z,941.7
2018-11-28T03:52:48.807Z,941.72
2018-11-28T03:53:49.585Z,941.74
2018-11-28T03:54:50.648Z,941.77
2018-11-28T03:55:51.872Z,941.77
2018-11-28T03:56:52.219Z,941.78
2018-11-28T03:57:52.918Z,941.76
2018-11-28T03:58:53.576Z,941.71
2018-11-28T03:59:54.633Z,941.71
2018-11-28T04:00:55.540Z,941.72
2018-11-28T04:01:56.043Z,941.78
2018-11-28T04:02:56.385Z,941.74
2018-11-28T04:03:57.479Z,941.74
2018-11-28T04:04:58.814Z,941.7
2018-11-28T04:05:59.318Z,941.77
2018-11-28T04:06:59.925Z,941.76
2018-11-28T04:08:00.713Z,941.75
2018-11-28T04:09:01.212Z,941.74
2018-11-28T04:10:02.005Z,941.73
2018-11-28T04:11:03.404Z,941.71
2018-11-28T04:12:04.472Z,941.72
2018-11-28T04:13:05.535Z,941.7
2018-11-28T04:14:06.315Z,941.69
2018-11-28T04:15:06.932Z,941.66
2018-11-28T04:16:07.990Z,941.7
2018-11-28T04:17:08.774Z,941.67
2018-11-28T04:18:09.854Z,941.68
2018-11-28T04:19:10.910Z,941.64
2018-11-28T04:20:11.706Z,941.64
2018-11-28T04:21:12.269Z,941.63
2018-11-28T04:22:12.793Z,941.67
2018-11-28T04:23:13.682Z,941.66
2018-11-28T04:24:14.187Z,941.64
2018-11-28T04:25:15.272Z,941.67
2018-11-28T04:26:15.621Z,941.67
2018-11-28T04:27:16.743Z,941.62
2018-11-28T04:28:17.077Z,941.64
2018-11-28T04:29:17.598Z,941.64
2018-11-28T04:30:18.096Z,941.63
2018-11-28T04:31:18.743Z,941.59
2018-11-28T04:32:19.798Z,941.66
2018-11-28T04:33:20.587Z,941.63
2018-11-28T04:34:21.645Z,941.64
2018-11-28T04:35:22.479Z,941.63
2018-11-28T04:36:23.545Z,941.69
2018-11-28T04:37:24.048Z,941.64
2018-11-28T04:38:24.662Z,941.66
2018-11-28T04:39:25.161Z,941.61
2018-11-28T04:40:26.497Z,941.68
2018-11-28T04:41:27.753Z,941.67
2018-11-28T04:42:28.548Z,941.66
2018-11-28T04:43:29.326Z,941.7
2018-11-28T04:44:30.267Z,941.7
2018-11-28T04:45:31.327Z,941.72
2018-11-28T04:46:32.671Z,941.72
2018-11-28T04:47:33.732Z,941.7
2018-11-28T04:48:34.567Z,941.73
2018-11-28T04:49:35.922Z,941.68
2018-11-28T04:50:36.697Z,941.73
2018-11-28T04:51:37.531Z,941.77
2018-11-28T04:52:38.613Z,941.73
2018-11-28T04:53:39.670Z,941.72
2018-11-28T04:54:40.503Z,941.76
2018-11-28T04:55:41.286Z,941.75
2018-11-28T04:56:42.344Z,941.74
2018-11-28T04:57:43.126Z,941.75
2018-11-28T04:58:44.468Z,941.76
2018-11-28T04:59:45.534Z,941.76
2018-11-28T05:00:45.928Z,941.73
2018-11-28T05:01:46.476Z,941.7
2018-11-28T05:02:47.037Z,941.68
2018-11-28T05:03:48.101Z,941.68
2018-11-28T05:04:49.606Z,941.71
2018-11-28T05:05:50.674Z,941.69
2018-11-28T05:06:51.180Z,941.72
2018-11-28T05:07:52.285Z,941.72
2018-11-28T05:08:52.623Z,941.75
2018-11-28T05:09:53.850Z,941.67
2018-11-28T05:10:54.630Z,941.69
2018-11-28T05:11:55.035Z,941.7
2018-11-28T05:12:55.538Z,941.72
2018-11-28T05:13:56.159Z,941.71
2018-11-28T05:14:56.662Z,941.74
2018-11-28T05:15:57.168Z,941.72
2018-11-28T05:16:58.226Z,941.69
2018-11-28T05:17:59.451Z,941.73
2018-11-28T05:19:00.237Z,941.7
2018-11-28T05:20:01.022Z,941.73
2018-11-28T05:21:02.076Z,941.74
2018-11-28T05:22:03.182Z,941.75
2018-11-28T05:23:03.960Z,941.74
2018-11-28T05:24:04.516Z,941.75
2018-11-28T05:25:05.754Z,941.75
2018-11-28T05:26:06.979Z,941.72
2018-11-28T05:27:07.481Z,941.74
2018-11-28T05:28:07.984Z,941.76
2018-11-28T05:29:08.488Z,941.74
2018-11-28T05:30:09.546Z,941.72
2018-11-28T05:31:10.325Z,941.75
2018-11-28T05:32:11.325Z,941.69
2018-11-28T05:33:12.827Z,941.76
2018-11-28T05:34:14.050Z,941.78
2018-11-28T05:35:14.829Z,941.77
2018-11-28T05:36:15.884Z,941.79
2018-11-28T05:37:16.413Z,941.78
2018-11-28T05:38:16.741Z,941.78
2018-11-28T05:39:17.798Z,941.8
2018-11-28T05:40:18.861Z,941.81
2018-11-28T05:41:19.929Z,941.81
2018-11-28T05:42:21.204Z,941.79
2018-11-28T05:43:21.983Z,941.82
2018-11-28T05:44:22.770Z,941.79
2018-11-28T05:45:23.993Z,941.8
2018-11-28T05:46:24.771Z,941.84
2018-11-28T05:47:25.996Z,941.82
2018-11-28T05:48:26.498Z,941.83
2018-11-28T05:49:27.723Z,941.86
2018-11-28T05:50:28.979Z,941.82
2018-11-28T05:51:30.201Z,941.82
2018-11-28T05:52:30.759Z,941.78
2018-11-28T05:53:31.258Z,941.8
2018-11-28T05:54:31.759Z,941.78
2018-11-28T05:55:32.820Z,941.89
2018-11-28T05:56:33.878Z,941.85
2018-11-28T05:57:35.104Z,941.85
2018-11-28T05:58:35.603Z,941.82
2018-11-28T05:59:36.103Z,941.87
2018-11-28T06:00:37.328Z,941.83
2018-11-28T06:01:37.664Z,941.87
2018-11-28T06:02:38.665Z,941.82
2018-11-28T06:03:40.165Z,941.85
2018-11-28T06:04:40.943Z,941.84
2018-11-28T06:05:41.719Z,941.83
2018-11-28T06:06:42.283Z,941.84
2018-11-28T06:07:42.786Z,941.81
2018-11-28T06:08:43.563Z,941.78
2018-11-28T06:09:44.341Z,941.84
2018-11-28T06:10:44.841Z,941.78
2018-11-28T06:11:45.179Z,941.82
2018-11-28T06:12:45.459Z,941.83
2018-11-28T06:13:46.680Z,941.86
2018-11-28T06:14:47.572Z,941.89
2018-11-28T06:15:48.352Z,941.82
2018-11-28T06:16:49.132Z,941.83
2018-11-28T06:17:49.921Z,941.77
2018-11-28T06:18:50.976Z,941.82
2018-11-28T06:19:52.201Z,941.81
2018-11-28T06:20:52.706Z,941.79
2018-11-28T06:21:53.762Z,941.82
2018-11-28T06:22:54.599Z,941.85
2018-11-28T06:23:55.101Z,941.83
2018-11-28T06:24:55.883Z,941.84
2018-11-28T06:25:56.661Z,941.81
2018-11-28T06:26:57.164Z,941.86
2018-11-28T06:27:57.940Z,941.86
2018-11-28T06:28:58.720Z,941.83
2018-11-28T06:29:59.221Z,941.84
2018-11-28T06:31:00.281Z,941.87
2018-11-28T06:32:01.342Z,941.86
2018-11-28T06:33:01.629Z,941.88
2018-11-28T06:34:02.406Z,941.89
2018-11-28T06:35:03.186Z,941.88
2018-11-28T06:36:04.043Z,941.91
2018-11-28T06:37:04.938Z,941.95
2018-11-28T06:38:05.443Z,941.92
2018-11-28T06:39:06.227Z,941.95
2018-11-28T06:40:06.735Z,941.98
2018-11-28T06:41:07.513Z,941.95
2018-11-28T06:42:08.861Z,941.99
2018-11-28T06:43:09.419Z,941.97
2018-11-28T06:44:10.649Z,941.97
2018-11-28T06:45:11.707Z,942
2018-11-28T06:46:12.526Z,942.01
2018-11-28T06:47:13.032Z,942.04
2018-11-28T06:48:14.310Z,942.06
2018-11-28T06:49:15.644Z,942.06
2018-11-28T06:50:16.903Z,942.09
2018-11-28T06:51:18.142Z,942.07
2018-11-28T06:52:18.646Z,942.09
2018-11-28T06:53:19.248Z,942.12
2018-11-28T06:54:20.475Z,942.12
2018-11-28T06:55:21.707Z,942.12
2018-11-28T06:56:22.775Z,942.19
2018-11-28T06:57:24.002Z,942.21
2018-11-28T06:58:25.061Z,942.2
2018-11-28T06:59:25.568Z,942.23
2018-11-28T07:00:26.798Z,942.23
2018-11-28T07:01:27.580Z,942.29
2018-11-28T07:02:28.375Z,942.28
2018-11-28T07:03:28.655Z,942.29
2018-11-28T07:04:29.885Z,942.31
2018-11-28T07:05:30.947Z,942.4
2018-11-28T07:06:32.092Z,942.36
2018-11-28T07:07:32.154Z,942.38
2018-11-28T07:08:33.224Z,942.39
2018-11-28T07:09:33.752Z,942.4
2018-11-28T07:10:34.303Z,942.45
2018-11-28T07:11:34.808Z,942.41
2018-11-28T07:12:35.869Z,942.46
2018-11-28T07:13:36.711Z,942.43
2018-11-28T07:14:37.493Z,942.47
2018-11-28T07:15:38.721Z,942.47
2018-11-28T07:16:39.227Z,942.48
2018-11-28T07:17:40.010Z,942.47
2018-11-28T07:18:41.069Z,942.52
2018-11-28T07:19:41.583Z,942.52
2018-11-28T07:20:42.224Z,942.52
2018-11-28T07:21:42.506Z,942.56
2018-11-28T07:22:43.010Z,942.56
2018-11-28T07:23:43.694Z,942.59
2018-11-28T07:24:44.921Z,942.59
2018-11-28T07:25:45.435Z,942.55
2018-11-28T07:26:46.494Z,942.59
2018-11-28T07:27:47.286Z,942.56
2018-11-28T07:28:48.073Z,942.58
2018-11-28T07:29:48.577Z,942.58
2018-11-28T07:30:49.368Z,942.64
2018-11-28T07:31:50.194Z,942.62
2018-11-28T07:32:50.983Z,942.6
2018-11-28T07:33:51.545Z,942.65
2018-11-28T07:34:52.051Z,942.68
2018-11-28T07:35:53.285Z,942.68
2018-11-28T07:36:53.808Z,942.73
2018-11-28T07:37:54.307Z,942.75
2018-11-28T07:38:55.101Z,942.71
2018-11-28T07:39:55.888Z,942.74
2018-11-28T07:40:56.671Z,942.75
2018-11-28T07:41:57.458Z,942.72
2018-11-28T07:42:58.968Z,942.72
2018-11-28T07:44:00.097Z,942.7
2018-11-28T07:45:00.741Z,942.72
2018-11-28T07:46:01.256Z,942.73
2018-11-28T07:47:01.760Z,942.77
2018-11-28T07:48:02.835Z,942.77
2018-11-28T07:49:03.623Z,942.77
2018-11-28T07:50:05.034Z,942.79
2018-11-28T07:51:05.648Z,942.76
2018-11-28T07:52:06.877Z,942.77
2018-11-28T07:53:07.778Z,942.77
2018-11-28T07:54:09.062Z,942.73
2018-11-28T07:55:09.412Z,942.77
2018-11-28T07:56:09.900Z,942.74
2018-11-28T07:57:11.408Z,942.76
2018-11-28T07:58:12.197Z,942.75
2018-11-28T07:59:12.991Z,942.78
2018-11-28T08:00:14.320Z,942.76
2018-11-28T08:01:15.550Z,942.76
2018-11-28T08:02:16.056Z,942.79
2018-11-28T08:03:16.843Z,942.75
2018-11-28T08:04:17.524Z,942.78
2018-11-28T08:05:18.950Z,942.79
2018-11-28T08:06:19.746Z,942.77
2018-11-28T08:07:20.543Z,942.78
2018-11-28T08:08:21.787Z,942.77
2018-11-28T08:09:23.056Z,942.76
2018-11-28T08:10:23.865Z,942.78
2018-11-28T08:11:25.078Z,942.82
2018-11-28T08:12:25.657Z,942.83
2018-11-28T08:13:26.722Z,942.83
2018-11-28T08:14:27.278Z,942.8
2018-11-28T08:15:28.066Z,942.84
2018-11-28T08:16:28.863Z,942.85
2018-11-28T08:17:30.616Z,942.81
2018-11-28T08:18:31.690Z,942.8
2018-11-28T08:19:32.752Z,942.81
2018-11-28T08:20:33.813Z,942.82
2018-11-28T08:21:34.323Z,942.84
2018-11-28T08:22:36.823Z,942.83
2018-11-28T08:23:37.612Z,942.82
2018-11-28T08:24:38.501Z,942.76
2018-11-28T08:25:38.747Z,942.77
2018-11-28T08:26:39.678Z,942.76
2018-11-28T08:27:41.130Z,942.76
2018-11-28T08:28:41.567Z,942.75
2018-11-28T08:29:43.081Z,942.79
2018-11-28T08:30:43.869Z,942.78
2018-11-28T08:31:44.666Z,942.82
2018-11-28T08:32:45.171Z,942.79
2018-11-28T08:33:46.245Z,942.81
2018-11-28T08:34:46.814Z,942.78
2018-11-28T08:34:58.059Z,942.79
2018-11-28T08:35:58.816Z,942.75
2018-11-28T08:37:00.166Z,942.75
2018-11-28T08:38:00.847Z,942.77
2018-11-28T08:39:02.406Z,942.79
2018-11-28T08:40:02.927Z,942.78
2018-11-28T08:41:04.262Z,942.76
2018-11-28T08:42:05.770Z,942.73
2018-11-28T08:43:06.285Z,942.73
2018-11-28T08:44:07.516Z,942.76
2018-11-28T08:45:07.860Z,942.76
2018-11-28T08:46:08.317Z,942.76
2018-11-28T08:47:08.867Z,942.79
2018-11-28T08:48:09.654Z,942.77
2018-11-28T08:49:10.998Z,942.79
2018-11-28T08:50:11.506Z,942.78
2018-11-28T08:51:12.404Z,942.74
2018-11-28T08:52:13.343Z,942.75
2018-11-28T08:53:14.518Z,942.79
2018-11-28T08:54:15.162Z,942.78
2018-11-28T08:55:16.363Z,942.84
2018-11-28T08:56:17.121Z,942.86
2018-11-28T08:57:17.601Z,942.85
2018-11-28T08:58:18.754Z,942.81
2018-11-28T08:59:19.934Z,942.86
2018-11-28T09:00:20.033Z,942.87
2018-11-28T09:01:20.542Z,942.89
2018-11-28T09:02:21.469Z,942.89
2018-11-28T09:03:22.258Z,942.88
2018-11-28T09:04:23.045Z,942.9
2018-11-28T09:05:24.387Z,942.91
2018-11-28T09:06:24.945Z,942.94
2018-11-28T09:07:25.452Z,942.91
2018-11-28T09:08:25.961Z,942.93
2018-11-28T09:09:26.474Z,942.98
2018-11-28T09:10:26.990Z,943.04
2018-11-28T09:11:28.376Z,943.07
2018-11-28T09:12:28.891Z,943.04
2018-11-28T09:13:29.682Z,943.1
2018-11-28T09:14:30.469Z,943.1
2018-11-28T09:15:31.997Z,943.11
2018-11-28T09:16:33.121Z,943.15
2018-11-28T09:17:33.639Z,943.15
2018-11-28T09:18:34.204Z,943.13
2018-11-28T09:19:34.712Z,943.16
2018-11-28T09:20:35.779Z,943.13
2018-11-28T09:21:36.296Z,943.16
2018-11-28T09:22:37.540Z,943.18
2018-11-28T09:23:38.767Z,943.14
2018-11-28T09:24:39.557Z,943.08
2018-11-28T09:25:40.791Z,943.08
2018-11-28T09:26:41.371Z,943.06
2018-11-28T09:27:42.606Z,943.04
2018-11-28T09:28:44.746Z,943.03
2018-11-28T09:29:45.815Z,943.07
2018-11-28T09:30:46.603Z,943.05
2018-11-28T09:31:47.838Z,943.09
2018-11-28T09:32:49.087Z,943.07
2018-11-28T09:33:49.617Z,943.11
2018-11-28T09:34:50.421Z,943.12
2018-11-28T09:35:51.932Z,943.17
2018-11-28T09:36:53.215Z,943.15
2018-11-28T09:37:54.451Z,943.18
2018-11-28T09:38:54.956Z,943.19
2018-11-28T09:39:55.469Z,943.19
2018-11-28T09:40:55.981Z,943.17
2018-11-28T09:41:56.776Z,943.2
2018-11-28T09:42:57.569Z,943.15
2018-11-28T09:43:58.917Z,943.2
2018-11-28T09:44:59.432Z,943.2
2018-11-28T09:45:59.941Z,943.25
2018-11-28T09:47:00.804Z,943.2
2018-11-28T09:48:02.038Z,943.21
2018-11-28T09:49:02.386Z,943.22
2018-11-28T09:50:03.175Z,943.2
2018-11-28T09:51:04.415Z,943.19
2018-11-28T09:52:04.927Z,943.22
2018-11-28T09:53:05.717Z,943.22
2018-11-28T09:54:07.248Z,943.24
2018-11-28T09:55:07.758Z,943.27
2018-11-28T09:56:08.555Z,943.24
2018-11-28T09:57:08.846Z,943.28
2018-11-28T09:58:09.916Z,943.29
2018-11-28T09:59:10.712Z,943.29
2018-11-28T10:00:10.982Z,943.28
2018-11-28T10:01:11.544Z,943.28
2018-11-28T10:02:12.056Z,943.3
2018-11-28T10:03:13.125Z,943.32
2018-11-28T10:04:13.915Z,943.31
2018-11-28T10:05:14.513Z,943.3
2018-11-28T10:06:15.027Z,943.29
2018-11-28T10:07:15.872Z,943.27
2018-11-28T10:08:16.435Z,943.26
2018-11-28T10:09:16.948Z,943.26
2018-11-28T10:10:18.471Z,943.24
2018-11-28T10:11:19.714Z,943.23
2018-11-28T10:12:20.613Z,943.21
2018-11-28T10:13:21.644Z,943.19
2018-11-28T10:14:22.441Z,943.19
2018-11-28T10:15:22.954Z,943.18
2018-11-28T10:16:23.753Z,943.21
2018-11-28T10:17:24.951Z,943.2
2018-11-28T10:18:25.472Z,943.22
2018-11-28T10:19:26.715Z,943.19
2018-11-28T10:20:27.953Z,943.16
2018-11-28T10:21:29.027Z,943.19
2018-11-28T10:22:30.263Z,943.13
2018-11-28T10:23:30.778Z,943.13
2018-11-28T10:24:31.299Z,943.18
2018-11-28T10:25:32.433Z,943.2
2018-11-28T10:26:32.947Z,943.23
2018-11-28T10:27:33.381Z,943.23
2018-11-28T10:28:33.543Z,943.2
2018-11-28T10:29:34.348Z,943.18
2018-11-28T10:30:34.864Z,943.19
2018-11-28T10:31:35.457Z,943.19
2018-11-28T10:32:36.245Z,943.19
2018-11-28T10:33:37.482Z,943.18
2018-11-28T10:34:38.725Z,943.17
2018-11-28T10:35:40.182Z,943.15
2018-11-28T10:36:40.746Z,943.17
2018-11-28T10:37:41.346Z,943.19
2018-11-28T10:38:42.418Z,943.22
2018-11-28T10:39:43.212Z,943.18
2018-11-28T10:40:44.728Z,943.19
2018-11-28T10:41:45.522Z,943.19
2018-11-28T10:42:46.591Z,943.17
2018-11-28T10:43:47.401Z,943.18
2018-11-28T10:44:48.194Z,943.18
2018-11-28T10:45:48.993Z,943.14
2018-11-28T10:46:49.507Z,943.12
2018-11-28T10:47:50.072Z,943.09
2018-11-28T10:48:50.592Z,943.07
2018-11-28T10:49:51.726Z,943.1
2018-11-28T10:50:52.241Z,943.09
2018-11-28T10:51:53.027Z,943.11
2018-11-28T10:52:53.540Z,943.08
2018-11-28T10:53:54.250Z,943.1
2018-11-28T10:54:54.736Z,943.12
2018-11-28T10:55:55.973Z,943.14
2018-11-28T10:56:56.773Z,943.1
2018-11-28T10:57:57.634Z,943.15
2018-11-28T10:58:58.433Z,943.17
2018-11-28T10:59:58.949Z,943.13
2018-11-28T11:00:59.472Z,943.12
2018-11-28T11:01:59.986Z,943.07
2018-11-28T11:03:00.503Z,943.12
2018-11-28T11:04:01.594Z,943.13
2018-11-28T11:05:02.402Z,943.11
2018-11-28T11:06:02.918Z,943.15
2018-11-28T11:07:04.155Z,943.11
2018-11-28T11:08:05.014Z,943.15
2018-11-28T11:09:06.094Z,943.14
2018-11-28T11:10:06.891Z,943.14
2018-11-28T11:11:07.436Z,943.1
2018-11-28T11:12:08.737Z,943.19
2018-11-28T11:13:09.471Z,943.19
2018-11-28T11:14:10.264Z,943.13
2018-11-28T11:15:10.782Z,943.15
2018-11-28T11:16:12.023Z,943.14
2018-11-28T11:17:13.264Z,943.12
2018-11-28T11:18:13.833Z,943.1
2018-11-28T11:19:14.351Z,943.14
2018-11-28T11:20:15.589Z,943.15
2018-11-28T11:21:17.098Z,943.12
2018-11-28T11:22:18.342Z,943.11
2018-11-28T11:23:19.138Z,943.07
2018-11-28T11:24:19.796Z,943.05
2018-11-28T11:25:21.030Z,943.03
2018-11-28T11:26:22.342Z,943
2018-11-28T11:27:23.059Z,943.03
2018-11-28T11:28:25.974Z,943.05
2018-11-28T11:28:37.571Z,943.07
2018-11-28T11:29:37.439Z,942.98
2018-11-28T11:30:38.111Z,942.98
2018-11-28T11:31:38.805Z,942.98
2018-11-28T11:32:39.319Z,942.96
2018-11-28T11:33:40.583Z,942.91
2018-11-28T11:34:41.138Z,942.92
2018-11-28T11:35:41.655Z,942.91
2018-11-28T11:36:42.890Z,942.84
2018-11-28T11:37:43.406Z,942.84
2018-11-28T11:38:44.649Z,942.84
2018-11-28T11:39:45.345Z,942.87
2018-11-28T11:40:46.860Z,942.88
2018-11-28T11:41:47.653Z,942.84
2018-11-28T11:42:47.999Z,942.84
2018-11-28T11:43:48.792Z,942.84
2018-11-28T11:44:50.128Z,942.85
2018-11-28T11:45:51.365Z,942.86
2018-11-28T11:46:53.722Z,942.84
2018-11-28T11:47:04.384Z,942.84
2018-11-28T11:48:04.970Z,942.84
2018-11-28T11:49:05.779Z,942.79
2018-11-28T11:50:06.634Z,942.79
2018-11-28T11:51:07.425Z,942.76
2018-11-28T11:52:07.937Z,942.77
2018-11-28T11:53:08.829Z,942.78
2018-11-28T11:54:09.351Z,942.73
2018-11-28T11:55:09.702Z,942.72
2018-11-28T11:56:10.359Z,942.77
2018-11-28T11:57:11.151Z,942.72
2018-11-28T11:58:11.639Z,942.77
2018-11-28T11:59:12.555Z,942.78
2018-11-28T12:00:13.068Z,942.81
2018-11-28T12:01:13.413Z,942.78
2018-11-28T12:02:14.434Z,942.79
2018-11-28T12:03:15.504Z,942.78
2018-11-28T12:04:16.040Z,942.79
2018-11-28T12:05:16.829Z,942.79
2018-11-28T12:06:17.426Z,942.74
2018-11-28T12:07:20.608Z,942.79
2018-11-28T12:08:22.429Z,942.75
2018-11-28T12:09:23.229Z,942.69
2018-11-28T12:10:23.619Z,942.69
2018-11-28T12:11:25.437Z,942.67
2018-11-28T12:12:26.430Z,942.68
2018-11-28T12:13:28.012Z,942.67
2018-11-28T12:14:30.026Z,942.68
2018-11-28T12:14:40.756Z,942.65
2018-11-28T12:14:52.185Z,942.65
2018-11-28T12:15:52.467Z,942.68
2018-11-28T12:16:53.503Z,942.66
2018-11-28T12:17:54.738Z,942.69
2018-11-28T12:18:55.977Z,942.71
2018-11-28T12:19:56.503Z,942.68
2018-11-28T12:20:57.849Z,942.68
2018-11-28T12:21:58.919Z,942.7
2018-11-28T12:22:59.438Z,942.68
2018-11-28T12:24:00.066Z,942.66
2018-11-28T12:25:02.093Z,942.66
2018-11-28T12:26:02.570Z,942.67
2018-11-28T12:27:03.361Z,942.65
2018-11-28T12:28:04.449Z,942.6
2018-11-28T12:29:05.520Z,942.59
2018-11-28T12:30:06.314Z,942.6
2018-11-28T12:31:06.838Z,942.61
2018-11-28T12:32:07.902Z,942.57
2018-11-28T12:33:08.706Z,942.6
2018-11-28T12:34:09.217Z,942.63
2018-11-28T12:35:09.732Z,942.6
2018-11-28T12:36:10.699Z,942.54
2018-11-28T12:37:11.209Z,942.62